sensor_id;sensor_type;location;lat;lon;timestamp;P1;durP1;ratioP1;P2;durP2;ratioP2
15655;SDS011;7928;43.614;1.456;2022-07-11T00:02:03;3.55;;;1.40;;
15655;SDS011;7928;43.614;1.456;2022-07-11T00:04:32;2.25;;;1.48;;
15655;SDS011;7928;43.614;1.456;2022-07-11T00:06:59;3.53;;;1.25;;
15655;SDS011;7928;43.614;1.456;2022-07-11T00:09:27;3.17;;;1.42;;
15655;SDS011;7928;43.614;1.456;2022-07-11T00:11:55;3.13;;;1.42;;
15655;SDS011;7928;43.614;1.456;2022-07-11T00:14:23;4.95;;;2.05;;
15655;SDS011;7928;43.614;1.456;2022-07-11T00:16:51;4.00;;;1.88;;
15655;SDS011;7928;43.614;1.456;2022-07-11T00:19:19;2.40;;;1.73;;
15655;SDS011;7928;43.614;1.456;2022-07-11T00:21:46;3.67;;;1.50;;
15655;SDS011;7928;43.614;1.456;2022-07-11T00:24:14;2.33;;;1.15;;
15655;SDS011;7928;43.614;1.456;2022-07-11T00:26:42;1.83;;;1.20;;
15655;SDS011;7928;43.614;1.456;2022-07-11T00:29:09;2.83;;;1.42;;
15655;SDS011;7928;43.614;1.456;2022-07-11T00:31:38;2.40;;;1.55;;
15655;SDS011;7928;43.614;1.456;2022-07-11T00:34:05;4.28;;;1.73;;
15655;SDS011;7928;43.614;1.456;2022-07-11T00:36:32;1.90;;;1.27;;
15655;SDS011;7928;43.614;1.456;2022-07-11T00:38:59;1.52;;;1.10;;
15655;SDS011;7928;43.614;1.456;2022-07-11T00:41:26;2.35;;;1.52;;
15655;SDS011;7928;43.614;1.456;2022-07-11T00:43:54;4.63;;;1.20;;
15655;SDS011;7928;43.614;1.456;2022-07-11T00:46:22;1.90;;;1.48;;
15655;SDS011;7928;43.614;1.456;2022-07-11T00:48:51;3.92;;;1.30;;
15655;SDS011;7928;43.614;1.456;2022-07-11T00:51:19;5.35;;;1.50;;
15655;SDS011;7928;43.614;1.456;2022-07-11T00:53:48;3.00;;;1.40;;
15655;SDS011;7928;43.614;1.456;2022-07-11T00:56:16;3.90;;;1.50;;
15655;SDS011;7928;43.614;1.456;2022-07-11T00:58:45;2.70;;;1.45;;
15655;SDS011;7928;43.614;1.456;2022-07-11T01:01:13;4.20;;;1.70;;
15655;SDS011;7928;43.614;1.456;2022-07-11T01:03:40;2.28;;;1.15;;
15655;SDS011;7928;43.614;1.456;2022-07-11T01:06:09;1.85;;;1.20;;
15655;SDS011;7928;43.614;1.456;2022-07-11T01:08:36;1.83;;;1.30;;
15655;SDS011;7928;43.614;1.456;2022-07-11T01:11:04;3.40;;;1.20;;
15655;SDS011;7928;43.614;1.456;2022-07-11T01:13:35;2.85;;;1.38;;
15655;SDS011;7928;43.614;1.456;2022-07-11T01:16:09;4.13;;;1.30;;
15655;SDS011;7928;43.614;1.456;2022-07-11T01:18:38;3.00;;;1.52;;
15655;SDS011;7928;43.614;1.456;2022-07-11T01:21:17;1.65;;;1.55;;
15655;SDS011;7928;43.614;1.456;2022-07-11T01:23:50;4.53;;;1.45;;
15655;SDS011;7928;43.614;1.456;2022-07-11T01:26:19;3.97;;;1.45;;
15655;SDS011;7928;43.614;1.456;2022-07-11T01:28:47;7.95;;;2.08;;
15655;SDS011;7928;43.614;1.456;2022-07-11T01:31:14;4.28;;;2.08;;
15655;SDS011;7928;43.614;1.456;2022-07-11T01:33:41;4.45;;;2.60;;
15655;SDS011;7928;43.614;1.456;2022-07-11T01:36:08;7.90;;;2.80;;
15655;SDS011;7928;43.614;1.456;2022-07-11T01:38:36;3.77;;;3.33;;
15655;SDS011;7928;43.614;1.456;2022-07-11T01:41:04;6.32;;;3.53;;
15655;SDS011;7928;43.614;1.456;2022-07-11T01:43:32;6.50;;;3.90;;
15655;SDS011;7928;43.614;1.456;2022-07-11T01:45:59;5.55;;;3.78;;
15655;SDS011;7928;43.614;1.456;2022-07-11T01:48:26;4.10;;;3.13;;
15655;SDS011;7928;43.614;1.456;2022-07-11T01:50:53;3.60;;;3.13;;
15655;SDS011;7928;43.614;1.456;2022-07-11T01:53:20;4.10;;;2.72;;
15655;SDS011;7928;43.614;1.456;2022-07-11T01:55:47;2.73;;;2.53;;
15655;SDS011;7928;43.614;1.456;2022-07-11T01:58:16;3.03;;;2.53;;
15655;SDS011;7928;43.614;1.456;2022-07-11T02:00:43;2.87;;;2.50;;
15655;SDS011;7928;43.614;1.456;2022-07-11T02:03:10;5.33;;;2.10;;
15655;SDS011;7928;43.614;1.456;2022-07-11T02:05:37;3.70;;;1.65;;
15655;SDS011;7928;43.614;1.456;2022-07-11T02:08:05;5.88;;;1.60;;
15655;SDS011;7928;43.614;1.456;2022-07-11T02:10:39;3.95;;;1.80;;
15655;SDS011;7928;43.614;1.456;2022-07-11T02:13:07;3.25;;;1.35;;
15655;SDS011;7928;43.614;1.456;2022-07-11T02:15:37;2.77;;;1.20;;
15655;SDS011;7928;43.614;1.456;2022-07-11T02:18:05;2.57;;;1.40;;
15655;SDS011;7928;43.614;1.456;2022-07-11T02:20:32;3.73;;;1.33;;
15655;SDS011;7928;43.614;1.456;2022-07-11T02:23:00;2.73;;;1.63;;
15655;SDS011;7928;43.614;1.456;2022-07-11T02:25:27;2.77;;;1.77;;
15655;SDS011;7928;43.614;1.456;2022-07-11T02:27:54;3.07;;;1.70;;
15655;SDS011;7928;43.614;1.456;2022-07-11T02:30:21;3.50;;;1.63;;
15655;SDS011;7928;43.614;1.456;2022-07-11T02:32:50;2.00;;;1.60;;
15655;SDS011;7928;43.614;1.456;2022-07-11T02:35:17;4.27;;;1.80;;
15655;SDS011;7928;43.614;1.456;2022-07-11T02:37:45;2.43;;;1.20;;
15655;SDS011;7928;43.614;1.456;2022-07-11T02:40:12;2.60;;;1.73;;
15655;SDS011;7928;43.614;1.456;2022-07-11T02:42:39;1.90;;;1.70;;
15655;SDS011;7928;43.614;1.456;2022-07-11T02:45:06;2.40;;;1.83;;
15655;SDS011;7928;43.614;1.456;2022-07-11T02:47:35;4.70;;;1.87;;
15655;SDS011;7928;43.614;1.456;2022-07-11T02:50:05;4.03;;;1.60;;
15655;SDS011;7928;43.614;1.456;2022-07-11T02:52:34;2.87;;;2.23;;
15655;SDS011;7928;43.614;1.456;2022-07-11T02:55:01;3.33;;;1.53;;
15655;SDS011;7928;43.614;1.456;2022-07-11T02:57:28;2.73;;;1.63;;
15655;SDS011;7928;43.614;1.456;2022-07-11T02:59:55;6.60;;;2.20;;
15655;SDS011;7928;43.614;1.456;2022-07-11T03:02:22;5.83;;;2.20;;
15655;SDS011;7928;43.614;1.456;2022-07-11T03:04:50;3.43;;;1.53;;
15655;SDS011;7928;43.614;1.456;2022-07-11T03:07:18;4.50;;;1.97;;
15655;SDS011;7928;43.614;1.456;2022-07-11T03:09:45;4.00;;;2.00;;
15655;SDS011;7928;43.614;1.456;2022-07-11T03:12:12;2.13;;;1.80;;
15655;SDS011;7928;43.614;1.456;2022-07-11T03:14:39;6.57;;;1.90;;
15655;SDS011;7928;43.614;1.456;2022-07-11T03:17:06;5.83;;;2.23;;
15655;SDS011;7928;43.614;1.456;2022-07-11T03:19:33;2.40;;;1.70;;
15655;SDS011;7928;43.614;1.456;2022-07-11T03:22:00;3.10;;;1.83;;
15655;SDS011;7928;43.614;1.456;2022-07-11T03:24:28;2.20;;;1.53;;
15655;SDS011;7928;43.614;1.456;2022-07-11T03:26:55;3.37;;;1.83;;
15655;SDS011;7928;43.614;1.456;2022-07-11T03:29:22;3.10;;;1.87;;
15655;SDS011;7928;43.614;1.456;2022-07-11T03:31:49;2.10;;;1.70;;
15655;SDS011;7928;43.614;1.456;2022-07-11T03:34:17;3.57;;;1.77;;
15655;SDS011;7928;43.614;1.456;2022-07-11T03:36:44;3.23;;;1.50;;
15655;SDS011;7928;43.614;1.456;2022-07-11T03:39:12;1.77;;;1.60;;
15655;SDS011;7928;43.614;1.456;2022-07-11T03:41:41;2.00;;;1.80;;
15655;SDS011;7928;43.614;1.456;2022-07-11T03:44:08;3.80;;;2.13;;
15655;SDS011;7928;43.614;1.456;2022-07-11T03:46:35;5.47;;;2.30;;
15655;SDS011;7928;43.614;1.456;2022-07-11T03:49:02;6.40;;;2.33;;
15655;SDS011;7928;43.614;1.456;2022-07-11T03:51:29;3.53;;;1.97;;
15655;SDS011;7928;43.614;1.456;2022-07-11T03:53:56;3.10;;;2.20;;
15655;SDS011;7928;43.614;1.456;2022-07-11T03:56:23;4.67;;;1.80;;
15655;SDS011;7928;43.614;1.456;2022-07-11T03:58:52;5.27;;;2.20;;
15655;SDS011;7928;43.614;1.456;2022-07-11T04:01:19;2.70;;;1.83;;
15655;SDS011;7928;43.614;1.456;2022-07-11T04:03:46;5.90;;;2.10;;
15655;SDS011;7928;43.614;1.456;2022-07-11T04:06:14;1.93;;;1.70;;
15655;SDS011;7928;43.614;1.456;2022-07-11T04:08:41;2.17;;;1.53;;
15655;SDS011;7928;43.614;1.456;2022-07-11T04:11:08;3.77;;;1.80;;
15655;SDS011;7928;43.614;1.456;2022-07-11T04:13:35;5.47;;;1.90;;
15655;SDS011;7928;43.614;1.456;2022-07-11T04:16:04;2.23;;;1.53;;
15655;SDS011;7928;43.614;1.456;2022-07-11T04:18:32;2.73;;;1.77;;
15655;SDS011;7928;43.614;1.456;2022-07-11T04:20:58;3.03;;;1.67;;
15655;SDS011;7928;43.614;1.456;2022-07-11T04:23:26;2.00;;;1.80;;
15655;SDS011;7928;43.614;1.456;2022-07-11T04:25:53;2.87;;;1.60;;
15655;SDS011;7928;43.614;1.456;2022-07-11T04:28:20;2.13;;;1.77;;
15655;SDS011;7928;43.614;1.456;2022-07-11T04:30:46;3.77;;;1.70;;
15655;SDS011;7928;43.614;1.456;2022-07-11T04:33:15;4.73;;;2.00;;
15655;SDS011;7928;43.614;1.456;2022-07-11T04:35:42;2.90;;;1.80;;
15655;SDS011;7928;43.614;1.456;2022-07-11T04:38:09;2.10;;;1.90;;
15655;SDS011;7928;43.614;1.456;2022-07-11T04:40:36;4.50;;;2.00;;
15655;SDS011;7928;43.614;1.456;2022-07-11T04:43:03;3.20;;;1.83;;
15655;SDS011;7928;43.614;1.456;2022-07-11T04:45:31;6.10;;;2.30;;
15655;SDS011;7928;43.614;1.456;2022-07-11T04:47:58;4.17;;;2.30;;
15655;SDS011;7928;43.614;1.456;2022-07-11T04:50:27;6.13;;;2.67;;
15655;SDS011;7928;43.614;1.456;2022-07-11T04:52:55;6.60;;;1.97;;
15655;SDS011;7928;43.614;1.456;2022-07-11T04:55:22;5.63;;;2.80;;
15655;SDS011;7928;43.614;1.456;2022-07-11T04:57:49;3.67;;;2.27;;
15655;SDS011;7928;43.614;1.456;2022-07-11T05:00:16;3.50;;;1.87;;
15655;SDS011;7928;43.614;1.456;2022-07-11T05:02:44;3.43;;;2.27;;
15655;SDS011;7928;43.614;1.456;2022-07-11T05:05:11;2.37;;;1.90;;
15655;SDS011;7928;43.614;1.456;2022-07-11T05:07:39;3.40;;;1.80;;
15655;SDS011;7928;43.614;1.456;2022-07-11T05:10:06;5.53;;;2.40;;
15655;SDS011;7928;43.614;1.456;2022-07-11T05:12:34;4.87;;;2.30;;
15655;SDS011;7928;43.614;1.456;2022-07-11T05:15:01;3.00;;;2.00;;
15655;SDS011;7928;43.614;1.456;2022-07-11T05:17:28;6.40;;;2.50;;
15655;SDS011;7928;43.614;1.456;2022-07-11T05:19:55;5.20;;;2.20;;
15655;SDS011;7928;43.614;1.456;2022-07-11T05:22:22;4.27;;;2.37;;
15655;SDS011;7928;43.614;1.456;2022-07-11T05:24:51;8.23;;;2.50;;
15655;SDS011;7928;43.614;1.456;2022-07-11T05:27:18;8.47;;;2.30;;
15655;SDS011;7928;43.614;1.456;2022-07-11T05:29:45;8.30;;;2.50;;
15655;SDS011;7928;43.614;1.456;2022-07-11T05:32:12;9.20;;;2.40;;
15655;SDS011;7928;43.614;1.456;2022-07-11T05:34:39;3.03;;;2.17;;
15655;SDS011;7928;43.614;1.456;2022-07-11T05:37:07;6.50;;;2.60;;
15655;SDS011;7928;43.614;1.456;2022-07-11T05:39:34;4.70;;;1.90;;
15655;SDS011;7928;43.614;1.456;2022-07-11T05:42:02;10.97;;;2.80;;
15655;SDS011;7928;43.614;1.456;2022-07-11T05:44:30;6.43;;;2.50;;
15655;SDS011;7928;43.614;1.456;2022-07-11T05:46:58;5.43;;;2.37;;
15655;SDS011;7928;43.614;1.456;2022-07-11T05:49:26;6.20;;;2.80;;
15655;SDS011;7928;43.614;1.456;2022-07-11T05:51:53;6.67;;;2.83;;
15655;SDS011;7928;43.614;1.456;2022-07-11T05:54:20;4.60;;;2.40;;
15655;SDS011;7928;43.614;1.456;2022-07-11T05:56:47;7.33;;;2.83;;
15655;SDS011;7928;43.614;1.456;2022-07-11T05:59:16;6.77;;;2.57;;
15655;SDS011;7928;43.614;1.456;2022-07-11T06:01:43;7.33;;;2.77;;
15655;SDS011;7928;43.614;1.456;2022-07-11T06:04:10;8.57;;;2.90;;
15655;SDS011;7928;43.614;1.456;2022-07-11T06:06:37;8.10;;;2.70;;
15655;SDS011;7928;43.614;1.456;2022-07-11T06:09:04;6.43;;;2.23;;
15655;SDS011;7928;43.614;1.456;2022-07-11T06:11:30;13.57;;;3.37;;
15655;SDS011;7928;43.614;1.456;2022-07-11T06:13:58;7.30;;;2.80;;
15655;SDS011;7928;43.614;1.456;2022-07-11T06:16:26;8.43;;;2.63;;
15655;SDS011;7928;43.614;1.456;2022-07-11T06:18:53;7.37;;;2.83;;
15655;SDS011;7928;43.614;1.456;2022-07-11T06:21:20;6.13;;;2.83;;
15655;SDS011;7928;43.614;1.456;2022-07-11T06:23:47;6.60;;;2.30;;
15655;SDS011;7928;43.614;1.456;2022-07-11T06:26:14;7.67;;;2.50;;
15655;SDS011;7928;43.614;1.456;2022-07-11T06:28:42;6.93;;;2.70;;
15655;SDS011;7928;43.614;1.456;2022-07-11T06:31:09;4.93;;;2.90;;
15655;SDS011;7928;43.614;1.456;2022-07-11T06:33:37;10.00;;;4.73;;
15655;SDS011;7928;43.614;1.456;2022-07-11T06:36:05;10.07;;;2.97;;
15655;SDS011;7928;43.614;1.456;2022-07-11T06:38:33;5.63;;;3.17;;
15655;SDS011;7928;43.614;1.456;2022-07-11T06:41:00;7.53;;;2.33;;
15655;SDS011;7928;43.614;1.456;2022-07-11T06:43:28;7.33;;;2.47;;
15655;SDS011;7928;43.614;1.456;2022-07-11T06:45:55;2.73;;;1.80;;
15655;SDS011;7928;43.614;1.456;2022-07-11T06:48:22;13.27;;;4.83;;
15655;SDS011;7928;43.614;1.456;2022-07-11T06:50:52;8.03;;;4.60;;
15655;SDS011;7928;43.614;1.456;2022-07-11T06:53:19;2.47;;;1.70;;
15655;SDS011;7928;43.614;1.456;2022-07-11T06:55:46;2.27;;;1.67;;
15655;SDS011;7928;43.614;1.456;2022-07-11T06:58:13;1.93;;;1.73;;
15655;SDS011;7928;43.614;1.456;2022-07-11T07:00:57;3.03;;;1.47;;
15655;SDS011;7928;43.614;1.456;2022-07-11T07:03:24;2.57;;;1.57;;
15655;SDS011;7928;43.614;1.456;2022-07-11T07:05:53;2.63;;;1.80;;
15655;SDS011;7928;43.614;1.456;2022-07-11T07:08:22;4.33;;;1.70;;
15655;SDS011;7928;43.614;1.456;2022-07-11T07:10:50;2.57;;;2.33;;
15655;SDS011;7928;43.614;1.456;2022-07-11T07:13:17;3.77;;;2.50;;
15655;SDS011;7928;43.614;1.456;2022-07-11T07:15:44;2.63;;;2.40;;
15655;SDS011;7928;43.614;1.456;2022-07-11T07:18:11;3.47;;;2.93;;
15655;SDS011;7928;43.614;1.456;2022-07-11T07:20:39;4.17;;;2.50;;
15655;SDS011;7928;43.614;1.456;2022-07-11T07:23:07;3.53;;;2.30;;
15655;SDS011;7928;43.614;1.456;2022-07-11T07:25:34;6.37;;;2.80;;
15655;SDS011;7928;43.614;1.456;2022-07-11T07:28:02;3.90;;;1.70;;
15655;SDS011;7928;43.614;1.456;2022-07-11T07:30:30;4.07;;;1.83;;
15655;SDS011;7928;43.614;1.456;2022-07-11T07:32:58;3.20;;;2.10;;
15655;SDS011;7928;43.614;1.456;2022-07-11T07:35:25;3.23;;;1.70;;
15655;SDS011;7928;43.614;1.456;2022-07-11T07:37:52;4.03;;;1.60;;
15655;SDS011;7928;43.614;1.456;2022-07-11T07:40:21;2.80;;;2.37;;
15655;SDS011;7928;43.614;1.456;2022-07-11T07:42:48;4.40;;;2.07;;
15655;SDS011;7928;43.614;1.456;2022-07-11T07:45:15;3.57;;;1.60;;
15655;SDS011;7928;43.614;1.456;2022-07-11T07:47:42;4.87;;;1.97;;
15655;SDS011;7928;43.614;1.456;2022-07-11T07:50:09;4.63;;;2.23;;
15655;SDS011;7928;43.614;1.456;2022-07-11T07:52:36;2.13;;;1.93;;
15655;SDS011;7928;43.614;1.456;2022-07-11T07:55:04;6.00;;;2.10;;
15655;SDS011;7928;43.614;1.456;2022-07-11T07:57:34;3.47;;;1.80;;
15655;SDS011;7928;43.614;1.456;2022-07-11T08:00:01;2.00;;;1.80;;
15655;SDS011;7928;43.614;1.456;2022-07-11T08:02:47;5.73;;;1.80;;
15655;SDS011;7928;43.614;1.456;2022-07-11T08:05:16;2.83;;;1.50;;
15655;SDS011;7928;43.614;1.456;2022-07-11T08:07:43;2.57;;;1.80;;
15655;SDS011;7928;43.614;1.456;2022-07-11T08:10:10;4.63;;;1.90;;
15655;SDS011;7928;43.614;1.456;2022-07-11T08:12:39;6.43;;;2.20;;
15655;SDS011;7928;43.614;1.456;2022-07-11T08:15:06;3.03;;;1.90;;
15655;SDS011;7928;43.614;1.456;2022-07-11T08:17:34;4.20;;;1.60;;
15655;SDS011;7928;43.614;1.456;2022-07-11T08:20:01;2.60;;;1.70;;
15655;SDS011;7928;43.614;1.456;2022-07-11T08:22:28;2.03;;;1.40;;
15655;SDS011;7928;43.614;1.456;2022-07-11T08:24:55;5.00;;;1.90;;
15655;SDS011;7928;43.614;1.456;2022-07-11T08:27:22;3.70;;;1.83;;
15655;SDS011;7928;43.614;1.456;2022-07-11T08:29:50;3.60;;;1.90;;
15655;SDS011;7928;43.614;1.456;2022-07-11T08:32:17;3.20;;;2.10;;
15655;SDS011;7928;43.614;1.456;2022-07-11T08:34:44;6.47;;;2.20;;
15655;SDS011;7928;43.614;1.456;2022-07-11T08:37:11;4.17;;;1.87;;
15655;SDS011;7928;43.614;1.456;2022-07-11T08:39:39;3.40;;;1.80;;
15655;SDS011;7928;43.614;1.456;2022-07-11T08:42:06;3.75;;;1.67;;
15655;SDS011;7928;43.614;1.456;2022-07-11T08:44:33;1.95;;;1.60;;
15655;SDS011;7928;43.614;1.456;2022-07-11T08:47:04;4.60;;;2.13;;
15655;SDS011;7928;43.614;1.456;2022-07-11T08:49:31;4.50;;;1.93;;
15655;SDS011;7928;43.614;1.456;2022-07-11T08:51:59;3.75;;;1.85;;
15655;SDS011;7928;43.614;1.456;2022-07-11T08:54:26;3.10;;;1.60;;
15655;SDS011;7928;43.614;1.456;2022-07-11T08:56:53;5.33;;;1.73;;
15655;SDS011;7928;43.614;1.456;2022-07-11T08:59:21;2.43;;;1.77;;
15655;SDS011;7928;43.614;1.456;2022-07-11T09:01:49;5.07;;;2.00;;
15655;SDS011;7928;43.614;1.456;2022-07-11T09:04:31;3.17;;;1.80;;
15655;SDS011;7928;43.614;1.456;2022-07-11T09:06:59;2.75;;;1.90;;
15655;SDS011;7928;43.614;1.456;2022-07-11T09:09:26;2.97;;;2.00;;
15655;SDS011;7928;43.614;1.456;2022-07-11T09:11:55;3.90;;;1.60;;
15655;SDS011;7928;43.614;1.456;2022-07-11T09:14:23;3.50;;;1.85;;
15655;SDS011;7928;43.614;1.456;2022-07-11T09:16:51;2.88;;;1.60;;
15655;SDS011;7928;43.614;1.456;2022-07-11T09:19:23;3.33;;;1.73;;
15655;SDS011;7928;43.614;1.456;2022-07-11T09:22:02;4.50;;;1.55;;
15655;SDS011;7928;43.614;1.456;2022-07-11T09:24:57;1.90;;;1.20;;
15655;SDS011;7928;43.614;1.456;2022-07-11T09:27:44;1.33;;;1.13;;
15655;SDS011;7928;43.614;1.456;2022-07-11T09:30:16;4.00;;;1.38;;
15655;SDS011;7928;43.614;1.456;2022-07-11T09:32:54;4.03;;;1.30;;
15655;SDS011;7928;43.614;1.456;2022-07-11T09:35:24;3.45;;;1.38;;
15655;SDS011;7928;43.614;1.456;2022-07-11T09:37:54;2.03;;;1.35;;
15655;SDS011;7928;43.614;1.456;2022-07-11T09:40:21;1.67;;;1.40;;
15655;SDS011;7928;43.614;1.456;2022-07-11T09:42:51;1.80;;;1.40;;
15655;SDS011;7928;43.614;1.456;2022-07-11T09:45:20;7.53;;;1.95;;
15655;SDS011;7928;43.614;1.456;2022-07-11T09:47:48;1.55;;;1.30;;
15655;SDS011;7928;43.614;1.456;2022-07-11T09:50:19;2.50;;;1.40;;
15655;SDS011;7928;43.614;1.456;2022-07-11T09:53:04;4.72;;;1.17;;
15655;SDS011;7928;43.614;1.456;2022-07-11T09:55:32;3.28;;;1.10;;
15655;SDS011;7928;43.614;1.456;2022-07-11T09:58:02;1.75;;;1.35;;
15655;SDS011;7928;43.614;1.456;2022-07-11T10:00:30;3.03;;;1.17;;
15655;SDS011;7928;43.614;1.456;2022-07-11T10:02:59;3.53;;;1.40;;
15655;SDS011;7928;43.614;1.456;2022-07-11T10:05:26;2.20;;;1.10;;
15655;SDS011;7928;43.614;1.456;2022-07-11T10:07:54;2.40;;;1.23;;
15655;SDS011;7928;43.614;1.456;2022-07-11T10:10:24;2.97;;;1.45;;
15655;SDS011;7928;43.614;1.456;2022-07-11T10:12:52;3.45;;;1.25;;
15655;SDS011;7928;43.614;1.456;2022-07-11T10:15:20;1.83;;;1.70;;
15655;SDS011;7928;43.614;1.456;2022-07-11T10:17:54;4.60;;;1.20;;
15655;SDS011;7928;43.614;1.456;2022-07-11T10:20:28;4.03;;;2.10;;
15655;SDS011;7928;43.614;1.456;2022-07-11T10:23:03;1.65;;;1.30;;
15655;SDS011;7928;43.614;1.456;2022-07-11T10:25:37;2.65;;;1.38;;
15655;SDS011;7928;43.614;1.456;2022-07-11T10:28:16;4.07;;;1.45;;
15655;SDS011;7928;43.614;1.456;2022-07-11T10:30:51;2.90;;;1.38;;
15655;SDS011;7928;43.614;1.456;2022-07-11T10:33:21;3.75;;;1.73;;
15655;SDS011;7928;43.614;1.456;2022-07-11T10:35:49;1.35;;;1.25;;
15655;SDS011;7928;43.614;1.456;2022-07-11T10:38:17;2.35;;;1.33;;
15655;SDS011;7928;43.614;1.456;2022-07-11T10:40:47;5.13;;;1.58;;
15655;SDS011;7928;43.614;1.456;2022-07-11T10:43:16;3.75;;;1.38;;
15655;SDS011;7928;43.614;1.456;2022-07-11T10:45:59;3.10;;;2.03;;
15655;SDS011;7928;43.614;1.456;2022-07-11T10:48:28;6.50;;;1.50;;
15655;SDS011;7928;43.614;1.456;2022-07-11T10:53:50;2.28;;;1.42;;
15655;SDS011;7928;43.614;1.456;2022-07-11T10:56:24;4.07;;;1.52;;
15655;SDS011;7928;43.614;1.456;2022-07-11T10:59:06;2.78;;;1.42;;
15655;SDS011;7928;43.614;1.456;2022-07-11T11:04:44;2.58;;;1.40;;
15655;SDS011;7928;43.614;1.456;2022-07-11T11:13:16;2.10;;;1.40;;
15655;SDS011;7928;43.614;1.456;2022-07-11T11:15:45;1.38;;;1.27;;
15655;SDS011;7928;43.614;1.456;2022-07-11T11:21:15;2.67;;;1.30;;
15655;SDS011;7928;43.614;1.456;2022-07-11T11:24:00;1.63;;;1.48;;
15655;SDS011;7928;43.614;1.456;2022-07-11T11:26:46;3.05;;;1.50;;
15655;SDS011;7928;43.614;1.456;2022-07-11T11:29:20;1.10;;;1.00;;
15655;SDS011;7928;43.614;1.456;2022-07-11T11:31:49;1.65;;;1.38;;
15655;SDS011;7928;43.614;1.456;2022-07-11T11:34:18;3.60;;;1.40;;
15655;SDS011;7928;43.614;1.456;2022-07-11T11:36:51;1.58;;;1.20;;
15655;SDS011;7928;43.614;1.456;2022-07-11T11:39:22;2.40;;;1.35;;
15655;SDS011;7928;43.614;1.456;2022-07-11T11:41:51;1.70;;;1.33;;
15655;SDS011;7928;43.614;1.456;2022-07-11T11:44:20;1.38;;;1.15;;
15655;SDS011;7928;43.614;1.456;2022-07-11T11:46:49;1.90;;;1.50;;
15655;SDS011;7928;43.614;1.456;2022-07-11T11:49:18;2.55;;;1.17;;
15655;SDS011;7928;43.614;1.456;2022-07-11T11:51:46;2.40;;;1.75;;
15655;SDS011;7928;43.614;1.456;2022-07-11T11:54:20;1.77;;;1.65;;
15655;SDS011;7928;43.614;1.456;2022-07-11T11:56:48;2.50;;;1.05;;
15655;SDS011;7928;43.614;1.456;2022-07-11T11:59:15;2.45;;;1.40;;
15655;SDS011;7928;43.614;1.456;2022-07-11T12:01:44;4.22;;;1.20;;
15655;SDS011;7928;43.614;1.456;2022-07-11T12:04:13;1.30;;;1.08;;
15655;SDS011;7928;43.614;1.456;2022-07-11T12:06:42;4.50;;;1.45;;
15655;SDS011;7928;43.614;1.456;2022-07-11T12:09:11;3.10;;;1.52;;
15655;SDS011;7928;43.614;1.456;2022-07-11T12:11:41;1.38;;;1.20;;
15655;SDS011;7928;43.614;1.456;2022-07-11T12:14:10;1.25;;;1.10;;
15655;SDS011;7928;43.614;1.456;2022-07-11T12:16:39;2.60;;;1.42;;
15655;SDS011;7928;43.614;1.456;2022-07-11T12:19:09;3.20;;;1.30;;
15655;SDS011;7928;43.614;1.456;2022-07-11T12:21:38;1.70;;;1.33;;
15655;SDS011;7928;43.614;1.456;2022-07-11T12:24:06;1.70;;;1.48;;
15655;SDS011;7928;43.614;1.456;2022-07-11T12:26:36;1.80;;;1.17;;
15655;SDS011;7928;43.614;1.456;2022-07-11T12:29:05;3.22;;;1.10;;
15655;SDS011;7928;43.614;1.456;2022-07-11T12:31:43;1.40;;;1.30;;
15655;SDS011;7928;43.614;1.456;2022-07-11T12:34:14;2.10;;;1.00;;
15655;SDS011;7928;43.614;1.456;2022-07-11T12:36:41;3.17;;;1.25;;
15655;SDS011;7928;43.614;1.456;2022-07-11T12:39:08;1.30;;;1.17;;
15655;SDS011;7928;43.614;1.456;2022-07-11T12:41:35;2.55;;;1.20;;
15655;SDS011;7928;43.614;1.456;2022-07-11T12:44:02;1.65;;;1.05;;
15655;SDS011;7928;43.614;1.456;2022-07-11T12:46:47;1.65;;;1.10;;
15655;SDS011;7928;43.614;1.456;2022-07-11T12:49:16;2.63;;;1.17;;
15655;SDS011;7928;43.614;1.456;2022-07-11T12:51:44;1.42;;;1.25;;
15655;SDS011;7928;43.614;1.456;2022-07-11T12:54:12;1.85;;;1.05;;
15655;SDS011;7928;43.614;1.456;2022-07-11T12:56:39;1.73;;;1.40;;
15655;SDS011;7928;43.614;1.456;2022-07-11T12:59:17;1.90;;;1.30;;
15655;SDS011;7928;43.614;1.456;2022-07-11T13:01:56;1.40;;;1.00;;
15655;SDS011;7928;43.614;1.456;2022-07-11T13:04:29;2.63;;;1.13;;
15655;SDS011;7928;43.614;1.456;2022-07-11T13:07:23;1.58;;;1.00;;
15655;SDS011;7928;43.614;1.456;2022-07-11T13:10:12;1.50;;;1.25;;
15655;SDS011;7928;43.614;1.456;2022-07-11T13:12:40;2.25;;;1.60;;
15655;SDS011;7928;43.614;1.456;2022-07-11T13:15:09;2.63;;;1.40;;
15655;SDS011;7928;43.614;1.456;2022-07-11T13:17:38;2.13;;;1.00;;
15655;SDS011;7928;43.614;1.456;2022-07-11T13:20:08;2.45;;;1.30;;
15655;SDS011;7928;43.614;1.456;2022-07-11T13:22:38;1.20;;;1.10;;
15655;SDS011;7928;43.614;1.456;2022-07-11T13:25:05;1.38;;;1.10;;
15655;SDS011;7928;43.614;1.456;2022-07-11T13:27:33;1.65;;;1.20;;
15655;SDS011;7928;43.614;1.456;2022-07-11T13:30:00;1.30;;;1.02;;
15655;SDS011;7928;43.614;1.456;2022-07-11T13:32:34;1.48;;;1.10;;
15655;SDS011;7928;43.614;1.456;2022-07-11T13:35:02;1.38;;;1.27;;
15655;SDS011;7928;43.614;1.456;2022-07-11T13:37:31;2.25;;;1.30;;
15655;SDS011;7928;43.614;1.456;2022-07-11T13:39:58;2.42;;;1.27;;
15655;SDS011;7928;43.614;1.456;2022-07-11T13:42:25;2.15;;;1.10;;
15655;SDS011;7928;43.614;1.456;2022-07-11T13:44:52;1.92;;;1.50;;
15655;SDS011;7928;43.614;1.456;2022-07-11T13:47:19;3.88;;;1.20;;
15655;SDS011;7928;43.614;1.456;2022-07-11T13:49:46;1.77;;;1.02;;
15655;SDS011;7928;43.614;1.456;2022-07-11T13:52:13;1.40;;;1.30;;
15655;SDS011;7928;43.614;1.456;2022-07-11T13:54:41;2.08;;;0.95;;
15655;SDS011;7928;43.614;1.456;2022-07-11T13:57:08;3.58;;;1.55;;
15655;SDS011;7928;43.614;1.456;2022-07-11T13:59:35;1.25;;;1.15;;
15655;SDS011;7928;43.614;1.456;2022-07-11T14:02:02;2.25;;;1.20;;
15655;SDS011;7928;43.614;1.456;2022-07-11T14:04:30;1.60;;;1.35;;
15655;SDS011;7928;43.614;1.456;2022-07-11T14:06:57;3.80;;;1.20;;
15655;SDS011;7928;43.614;1.456;2022-07-11T14:09:24;2.58;;;1.20;;
15655;SDS011;7928;43.614;1.456;2022-07-11T14:11:54;1.85;;;1.35;;
15655;SDS011;7928;43.614;1.456;2022-07-11T14:14:21;1.45;;;1.10;;
15655;SDS011;7928;43.614;1.456;2022-07-11T14:16:48;2.25;;;1.17;;
15655;SDS011;7928;43.614;1.456;2022-07-11T14:19:15;1.27;;;1.17;;
15655;SDS011;7928;43.614;1.456;2022-07-11T14:21:42;2.33;;;1.23;;
15655;SDS011;7928;43.614;1.456;2022-07-11T14:24:09;2.13;;;1.38;;
15655;SDS011;7928;43.614;1.456;2022-07-11T14:26:37;2.38;;;1.30;;
15655;SDS011;7928;43.614;1.456;2022-07-11T14:29:06;1.77;;;1.20;;
15655;SDS011;7928;43.614;1.456;2022-07-11T14:31:33;1.30;;;1.17;;
15655;SDS011;7928;43.614;1.456;2022-07-11T14:34:00;3.80;;;1.33;;
15655;SDS011;7928;43.614;1.456;2022-07-11T14:36:27;2.95;;;1.42;;
15655;SDS011;7928;43.614;1.456;2022-07-11T14:38:54;2.22;;;1.55;;
15655;SDS011;7928;43.614;1.456;2022-07-11T14:41:21;1.90;;;1.10;;
15655;SDS011;7928;43.614;1.456;2022-07-11T14:43:49;4.50;;;1.33;;
15655;SDS011;7928;43.614;1.456;2022-07-11T14:46:18;1.40;;;1.30;;
15655;SDS011;7928;43.614;1.456;2022-07-11T14:48:47;3.38;;;1.52;;
15655;SDS011;7928;43.614;1.456;2022-07-11T14:51:14;3.67;;;1.48;;
15655;SDS011;7928;43.614;1.456;2022-07-11T14:53:41;2.85;;;1.60;;
15655;SDS011;7928;43.614;1.456;2022-07-11T14:56:08;5.68;;;1.40;;
15655;SDS011;7928;43.614;1.456;2022-07-11T14:58:35;5.10;;;2.55;;
15655;SDS011;7928;43.614;1.456;2022-07-11T15:01:02;3.22;;;1.27;;
15655;SDS011;7928;43.614;1.456;2022-07-11T15:03:31;4.43;;;1.23;;
15655;SDS011;7928;43.614;1.456;2022-07-11T15:06:03;2.25;;;1.40;;
15655;SDS011;7928;43.614;1.456;2022-07-11T15:08:31;2.05;;;1.20;;
15655;SDS011;7928;43.614;1.456;2022-07-11T15:11:16;1.98;;;1.35;;
15655;SDS011;7928;43.614;1.456;2022-07-11T15:14:03;1.67;;;1.40;;
15655;SDS011;7928;43.614;1.456;2022-07-11T15:16:30;2.67;;;1.10;;
15655;SDS011;7928;43.614;1.456;2022-07-11T15:19:00;4.82;;;1.42;;
15655;SDS011;7928;43.614;1.456;2022-07-11T15:21:28;2.10;;;1.40;;
15655;SDS011;7928;43.614;1.456;2022-07-11T15:23:55;1.30;;;1.20;;
15655;SDS011;7928;43.614;1.456;2022-07-11T15:26:22;1.40;;;1.25;;